Terminal Aerodrome Forecast
Issued by NWS

Home | Current Version | Previous Version | Text Only | Print | Product List | Glossary On
Versions: 1 2 3 4 5 6 7 8 9 10 11 12 13 14
000
FTUS41 KBTV 270540
TAFPBG
TAF
KPBG 270540Z 2706/2806 16006KT P6SM VCSH SCT030 OVC060
     FM270900 18007KT P6SM -SHRA SCT015 OVC030
     FM271500 19007KT P6SM VCSH BKN035
     FM271800 26005KT P6SM VCSH SCT060
     FM272000 24004KT P6SM SCT060=

USA.gov is the U.S. government's official web portal to all federal, state and local government web resources and services.